Time,TemperatureF,DewpointF,PressureIn,WindDirection,WindDirectionDegrees,WindSpeedMPH,WindSpeedGustMPH,Humidity,HourlyPrecipIn,Conditions,Clouds,dailyrainin,SolarRadiationWatts/m^2,SoftwareType,DateUTC
2013-09-03 00:02:00,74.9,72.0,29.98,NW,319,0.0,-999.0,91,-99.99,,,0.00,0,weatherlink.com 1.10,2013-09-03 04:02:00,
2013-09-03 00:17:00,74.8,72.0,29.98,NW,319,0.0,-999.0,91,-99.99,,,0.00,0,weatherlink.com 1.10,2013-09-03 04:17:00,
2013-09-03 00:32:00,74.6,72.0,29.99,NW,319,0.0,-999.0,91,-99.99,,,0.00,0,weatherlink.com 1.10,2013-09-03 04:32:00,
2013-09-03 00:47:00,74.5,72.0,29.98,NW,319,0.0,-999.0,92,-99.99,,,0.00,0,weatherlink.com 1.10,2013-09-03 04:47:00,
2013-09-03 01:02:00,74.4,72.0,29.98,NW,319,0.0,-999.0,92,-99.99,,,0.00,0,weatherlink.com 1.10,2013-09-03 05:02:00,
2013-09-03 01:17:00,74.2,72.0,29.98,NW,319,0.0,-999.0,92,-99.99,,,0.00,0,weatherlink.com 1.10,2013-09-03 05:17:00,
2013-09-03 01:32:00,74.1,72.0,29.97,NW,319,0.0,-999.0,92,-99.99,,,0.00,0,weatherlink.com 1.10,2013-09-03 05:32:00,
2013-09-03 01:47:00,74.1,72.0,29.97,NW,319,0.0,-999.0,92,-99.99,,,0.00,0,weatherlink.com 1.10,2013-09-03 05:47:00,
2013-09-03 02:02:00,74.1,72.0,29.97,NW,319,0.0,-999.0,92,-99.99,,,0.00,0,weatherlink.com 1.10,2013-09-03 06:02:00,
2013-09-03 02:17:00,73.9,72.0,29.96,NW,319,0.0,-999.0,93,-99.99,,,0.00,0,weatherlink.com 1.10,2013-09-03 06:17:00,
2013-09-03 02:32:00,73.9,72.0,29.96,NW,319,0.0,-999.0,93,-99.99,,,0.00,0,weatherlink.com 1.10,2013-09-03 06:32:00,
2013-09-03 02:47:00,73.9,72.0,29.95,NW,319,0.0,-999.0,93,-99.99,,,0.00,0,weatherlink.com 1.10,2013-09-03 06:47:00,
2013-09-03 03:02:00,73.9,72.0,29.96,NW,319,0.0,-999.0,93,-99.99,,,0.00,0,weatherlink.com 1.10,2013-09-03 07:02:00,
2013-09-03 03:17:00,73.9,72.0,29.95,NW,319,0.0,-999.0,93,-99.99,,,0.00,0,weatherlink.com 1.10,2013-09-03 07:17:00,
2013-09-03 03:32:00,73.9,72.0,29.95,NW,319,0.0,-999.0,93,-99.99,,,0.00,0,weatherlink.com 1.10,2013-09-03 07:32:00,
2013-09-03 03:47:00,73.7,72.0,29.95,NW,319,0.0,-999.0,94,-99.99,,,0.00,0,weatherlink.com 1.10,2013-09-03 07:47:00,
2013-09-03 04:02:00,73.5,72.0,29.94,NW,319,0.0,-999.0,94,-99.99,,,0.00,0,weatherlink.com 1.10,2013-09-03 08:02:00,
2013-09-03 04:17:00,73.5,72.0,29.93,NW,319,0.0,-999.0,94,-99.99,,,0.00,0,weatherlink.com 1.10,2013-09-03 08:17:00,
2013-09-03 04:32:00,73.3,72.0,29.94,NW,319,0.0,-999.0,94,-99.99,,,0.00,0,weatherlink.com 1.10,2013-09-03 08:32:00,
2013-09-03 04:47:00,73.2,71.0,29.93,NW,319,0.0,-999.0,94,-99.99,,,0.00,0,weatherlink.com 1.10,2013-09-03 08:47:00,
2013-09-03 05:02:00,73.2,71.0,29.93,NW,319,0.0,-999.0,94,-99.99,,,0.00,0,weatherlink.com 1.10,2013-09-03 09:02:00,
2013-09-03 05:17:00,73.1,71.0,29.93,NW,319,0.0,-999.0,94,-99.99,,,0.00,0,weatherlink.com 1.10,2013-09-03 09:17:00,
2013-09-03 05:32:00,73.0,71.0,29.93,NW,319,0.0,-999.0,94,-99.99,,,0.00,0,weatherlink.com 1.10,2013-09-03 09:32:00,
2013-09-03 05:47:00,73.0,71.0,29.93,NW,319,0.0,-999.0,94,-99.99,,,0.00,0,weatherlink.com 1.10,2013-09-03 09:47:00,
2013-09-03 06:02:00,73.0,71.0,29.93,NW,319,0.0,-999.0,94,-99.99,,,0.00,0,weatherlink.com 1.10,2013-09-03 10:02:00,
2013-09-03 06:17:00,73.0,72.0,29.94,NW,319,0.0,-999.0,95,-99.99,,,0.00,0,weatherlink.com 1.10,2013-09-03 10:17:00,
2013-09-03 06:32:00,72.9,71.0,29.94,NW,319,0.0,-999.0,95,-99.99,,,0.00,0,weatherlink.com 1.10,2013-09-03 10:32:00,
2013-09-03 06:47:00,72.9,71.0,29.95,NW,319,0.0,-999.0,95,-99.99,,,0.00,0,weatherlink.com 1.10,2013-09-03 10:47:00,
2013-09-03 07:02:00,73.0,72.0,29.95,NW,319,0.0,-999.0,95,-99.99,,,0.00,0,weatherlink.com 1.10,2013-09-03 11:02:00,
2013-09-03 07:17:00,73.1,72.0,29.95,NW,319,0.0,-999.0,95,-99.99,,,0.00,14,weatherlink.com 1.10,2013-09-03 11:17:00,
2013-09-03 07:32:00,73.3,72.0,29.96,NW,319,0.0,-999.0,95,-99.99,,,0.00,44,weatherlink.com 1.10,2013-09-03 11:32:00,
2013-09-03 07:47:00,74.1,73.0,29.96,NW,319,0.0,-999.0,95,-99.99,,,0.00,26,weatherlink.com 1.10,2013-09-03 11:47:00,
2013-09-03 08:02:00,75.3,74.0,29.96,NW,319,0.0,-999.0,95,-99.99,,,0.00,121,weatherlink.com 1.10,2013-09-03 12:02:00,
2013-09-03 08:17:00,76.8,75.0,29.96,NW,319,0.0,-999.0,95,-99.99,,,0.00,179,weatherlink.com 1.10,2013-09-03 12:17:00,
2013-09-03 08:32:00,78.5,77.0,29.97,NW,319,1.0,-999.0,95,-99.99,,,0.00,229,weatherlink.com 1.10,2013-09-03 12:32:00,
2013-09-03 08:48:00,81.1,79.0,29.97,NW,319,0.0,-999.0,92,-99.99,,,0.00,290,weatherlink.com 1.10,2013-09-03 12:48:00,
2013-09-03 09:03:00,82.9,78.0,29.97,NW,319,0.0,-999.0,86,-99.99,,,0.00,301,weatherlink.com 1.10,2013-09-03 13:03:00,
2013-09-03 09:18:00,83.8,79.0,29.98,NW,321,1.0,-999.0,84,-99.99,,,0.00,376,weatherlink.com 1.10,2013-09-03 13:18:00,
2013-09-03 09:33:00,83.7,78.0,29.99,NW,321,0.0,-999.0,83,-99.99,,,0.00,439,weatherlink.com 1.10,2013-09-03 13:33:00,
2013-09-03 09:48:00,85.2,79.0,29.99,NW,321,0.0,-999.0,82,-99.99,,,0.00,585,weatherlink.com 1.10,2013-09-03 13:48:00,
2013-09-03 10:03:00,86.2,78.0,29.99,ESE,111,4.0,-999.0,77,-99.99,,,0.00,642,weatherlink.com 1.10,2013-09-03 14:03:00,
2013-09-03 10:18:00,85.7,77.0,30.00,ENE,77,0.0,-999.0,75,-99.99,,,0.00,171,weatherlink.com 1.10,2013-09-03 14:18:00,
2013-09-03 10:33:00,87.7,79.0,30.00,East,82,0.0,-999.0,74,-99.99,,,0.00,838,weatherlink.com 1.10,2013-09-03 14:33:00,
2013-09-03 10:48:00,88.1,78.0,30.01,East,90,4.0,-999.0,71,-99.99,,,0.00,800,weatherlink.com 1.10,2013-09-03 14:48:00,
2013-09-03 11:03:00,87.4,77.0,30.01,ENE,61,0.0,-999.0,72,-99.99,,,0.00,791,weatherlink.com 1.10,2013-09-03 15:03:00,
2013-09-03 11:18:00,89.1,79.0,30.01,East,79,0.0,-999.0,71,-99.99,,,0.00,800,weatherlink.com 1.10,2013-09-03 15:18:00,
2013-09-03 11:33:00,87.6,78.0,30.01,ENE,63,2.0,-999.0,73,-99.99,,,0.00,821,weatherlink.com 1.10,2013-09-03 15:33:00,
2013-09-03 11:48:00,88.4,78.0,30.01,ENE,59,6.0,-999.0,70,-99.99,,,0.00,856,weatherlink.com 1.10,2013-09-03 15:48:00,
2013-09-03 12:03:00,89.4,79.0,30.01,ENE,76,4.0,-999.0,72,-99.99,,,0.00,868,weatherlink.com 1.10,2013-09-03 16:03:00,
2013-09-03 12:18:00,89.1,79.0,30.01,ENE,66,7.0,-999.0,73,-99.99,,,0.00,900,weatherlink.com 1.10,2013-09-03 16:18:00,
2013-09-03 12:33:00,88.0,79.0,30.00,ENE,78,3.0,-999.0,74,-99.99,,,0.00,970,weatherlink.com 1.10,2013-09-03 16:33:00,
2013-09-03 12:48:00,88.9,78.0,30.01,NE,49,5.0,-999.0,71,-99.99,,,0.00,1046,weatherlink.com 1.10,2013-09-03 16:48:00,
2013-09-03 13:03:00,89.3,79.0,30.00,ENE,77,1.0,-999.0,72,-99.99,,,0.00,476,weatherlink.com 1.10,2013-09-03 17:03:00,
2013-09-03 13:18:00,88.4,79.0,30.00,NE,53,4.0,-999.0,73,-99.99,,,0.00,744,weatherlink.com 1.10,2013-09-03 17:18:00,
2013-09-03 13:33:00,87.0,79.0,29.99,ENE,67,10.0,-999.0,76,-99.99,,,0.00,364,weatherlink.com 1.10,2013-09-03 17:33:00,
2013-09-03 13:48:00,85.8,77.0,29.99,ENE,66,3.0,-999.0,76,-99.99,,,0.00,158,weatherlink.com 1.10,2013-09-03 17:48:00,
2013-09-03 14:03:00,85.4,77.0,29.99,ENE,69,4.0,-999.0,76,-99.99,,,0.00,109,weatherlink.com 1.10,2013-09-03 18:03:00,
2013-09-03 14:18:00,84.6,76.0,29.98,ENE,75,4.0,-999.0,75,-99.99,,,0.00,95,weatherlink.com 1.10,2013-09-03 18:18:00,
2013-09-03 14:33:00,84.5,75.0,29.98,NE,41,5.0,-999.0,74,-99.99,,,0.00,88,weatherlink.com 1.10,2013-09-03 18:33:00,
2013-09-03 14:48:00,84.4,74.0,29.98,ENE,65,6.0,-999.0,72,-99.99,,,0.00,86,weatherlink.com 1.10,2013-09-03 18:48:00,
2013-09-03 15:03:00,83.9,75.0,29.97,NE,52,1.0,-999.0,74,-99.99,,,0.00,90,weatherlink.com 1.10,2013-09-03 19:03:00,
2013-09-03 15:18:00,84.5,77.0,29.97,ENE,67,0.0,-999.0,77,-99.99,,,0.00,114,weatherlink.com 1.10,2013-09-03 19:18:00,
2013-09-03 15:33:00,84.3,77.0,29.96,ENE,65,0.0,-999.0,79,-99.99,,,0.00,139,weatherlink.com 1.10,2013-09-03 19:33:00,
2013-09-03 15:48:00,84.2,76.0,29.96,ENE,64,2.0,-999.0,77,-99.99,,,0.00,169,weatherlink.com 1.10,2013-09-03 19:48:00,
2013-09-03 16:03:00,84.5,76.0,29.95,NE,53,1.0,-999.0,75,-99.99,,,0.00,179,weatherlink.com 1.10,2013-09-03 20:03:00,
2013-09-03 16:18:00,84.7,76.0,29.95,ENE,78,2.0,-999.0,75,-99.99,,,0.00,199,weatherlink.com 1.10,2013-09-03 20:18:00,
2013-09-03 16:33:00,85.0,77.0,29.95,ENE,61,2.0,-999.0,76,-99.99,,,0.00,274,weatherlink.com 1.10,2013-09-03 20:33:00,
2013-09-03 16:48:00,86.1,78.0,29.95,ENE,63,5.0,-999.0,77,-99.99,,,0.00,506,weatherlink.com 1.10,2013-09-03 20:48:00,
2013-09-03 17:03:00,86.5,78.0,29.94,ENE,67,0.0,-999.0,76,-99.99,,,0.00,309,weatherlink.com 1.10,2013-09-03 21:03:00,
2013-09-03 17:18:00,86.1,78.0,29.95,East,82,2.0,-999.0,76,-99.99,,,0.00,120,weatherlink.com 1.10,2013-09-03 21:18:00,
2013-09-03 17:33:00,85.2,78.0,29.95,East,85,0.0,-999.0,79,-99.99,,,0.00,113,weatherlink.com 1.10,2013-09-03 21:33:00,
2013-09-03 17:48:00,84.7,78.0,29.95,East,80,0.0,-999.0,81,-99.99,,,0.00,104,weatherlink.com 1.10,2013-09-03 21:48:00,
2013-09-03 18:03:00,84.2,78.0,29.95,ENE,78,0.0,-999.0,81,-99.99,,,0.00,84,weatherlink.com 1.10,2013-09-03 22:03:00,
2013-09-03 18:18:00,83.9,77.0,29.94,ENE,67,3.0,-999.0,80,-99.99,,,0.00,76,weatherlink.com 1.10,2013-09-03 22:18:00,
2013-09-03 18:33:00,83.8,77.0,29.95,ENE,74,4.0,-999.0,79,-99.99,,,0.00,63,weatherlink.com 1.10,2013-09-03 22:33:00,
2013-09-03 18:48:00,83.7,76.0,29.95,ENE,58,0.0,-999.0,78,-99.99,,,0.00,40,weatherlink.com 1.10,2013-09-03 22:48:00,
2013-09-03 19:03:00,83.7,76.0,29.96,NE,55,0.0,-999.0,77,-99.99,,,0.00,23,weatherlink.com 1.10,2013-09-03 23:03:00,
2013-09-03 19:18:00,83.8,76.0,29.96,ENE,60,1.0,-999.0,77,-99.99,,,0.00,14,weatherlink.com 1.10,2013-09-03 23:18:00,
2013-09-03 19:33:00,83.6,77.0,29.97,East,82,0.0,-999.0,79,-99.99,,,0.00,0,weatherlink.com 1.10,2013-09-03 23:33:00,
2013-09-03 19:48:00,83.4,77.0,29.97,ENE,78,1.0,-999.0,80,-99.99,,,0.00,0,weatherlink.com 1.10,2013-09-03 23:48:00,
2013-09-03 20:03:00,83.3,77.0,29.97,ENE,74,0.0,-999.0,81,-99.99,,,0.00,0,weatherlink.com 1.10,2013-09-04 00:03:00,
2013-09-03 20:18:00,83.0,77.0,29.98,East,83,0.0,-999.0,81,-99.99,,,0.00,0,weatherlink.com 1.10,2013-09-04 00:18:00,
2013-09-03 20:33:00,83.0,76.0,29.98,East,86,0.0,-999.0,80,-99.99,,,0.00,0,weatherlink.com 1.10,2013-09-04 00:33:00,
2013-09-03 20:48:00,83.0,76.0,29.98,East,81,0.0,-999.0,80,-99.99,,,0.00,0,weatherlink.com 1.10,2013-09-04 00:48:00,
2013-09-03 21:03:00,82.9,77.0,29.98,East,82,0.0,-999.0,81,-99.99,,,0.00,0,weatherlink.com 1.10,2013-09-04 01:03:00,
2013-09-03 21:19:00,82.8,76.0,29.99,ENE,65,0.0,-999.0,81,-99.99,,,0.00,0,weatherlink.com 1.10,2013-09-04 01:19:00,
2013-09-03 21:34:00,82.7,77.0,29.99,ENE,68,0.0,-999.0,82,-99.99,,,0.00,0,weatherlink.com 1.10,2013-09-04 01:34:00,
2013-09-03 21:49:00,82.6,77.0,29.99,ENE,68,0.0,-999.0,82,-99.99,,,0.00,0,weatherlink.com 1.10,2013-09-04 01:49:00,
2013-09-03 22:04:00,82.5,77.0,29.99,ENE,71,0.0,-999.0,83,-99.99,,,0.00,0,weatherlink.com 1.10,2013-09-04 02:04:00,
2013-09-03 22:19:00,82.4,76.0,30.00,SE,125,4.0,-999.0,82,-99.99,,,0.00,0,weatherlink.com 1.10,2013-09-04 02:19:00,
2013-09-03 22:34:00,82.5,77.0,30.00,ESE,110,0.0,-999.0,83,-99.99,,,0.00,0,weatherlink.com 1.10,2013-09-04 02:34:00,
2013-09-03 22:49:00,82.4,77.0,30.00,East,88,1.0,-999.0,83,-99.99,,,0.00,0,weatherlink.com 1.10,2013-09-04 02:49:00,
2013-09-03 23:04:00,82.3,77.0,30.00,East,91,0.0,-999.0,83,-99.99,,,0.00,0,weatherlink.com 1.10,2013-09-04 03:04:00,
2013-09-03 23:19:00,82.3,77.0,30.00,East,101,0.0,-999.0,83,-99.99,,,0.00,0,weatherlink.com 1.10,2013-09-04 03:19:00,
2013-09-03 23:34:00,82.2,77.0,30.00,ESE,118,0.0,-999.0,83,-99.99,,,0.00,0,weatherlink.com 1.10,2013-09-04 03:34:00,
2013-09-03 23:49:00,82.1,77.0,30.00,ESE,118,0.0,-999.0,84,-99.99,,,0.00,0,weatherlink.com 1.10,2013-09-04 03:49:00,